sensor_id;sensor_type;location;lat;lon;timestamp;temperature;humidity
65239;SHT30;51827;51.186;6.926;2023-03-21T00:01:00;19.23;51.57
65239;SHT30;51827;51.186;6.926;2023-03-21T00:02:00;19.22;51.56
65239;SHT30;51827;51.186;6.926;2023-03-21T00:03:01;19.23;51.57
65239;SHT30;51827;51.186;6.926;2023-03-21T00:04:02;19.23;51.58
65239;SHT30;51827;51.186;6.926;2023-03-21T00:05:02;19.23;51.57
65239;SHT30;51827;51.186;6.926;2023-03-21T00:06:08;19.22;51.52
65239;SHT30;51827;51.186;6.926;2023-03-21T00:07:08;19.20;51.54
65239;SHT30;51827;51.186;6.926;2023-03-21T00:08:08;19.22;51.51
65239;SHT30;51827;51.186;6.926;2023-03-21T00:09:09;19.23;51.53
65239;SHT30;51827;51.186;6.926;2023-03-21T00:10:09;19.23;51.54
65239;SHT30;51827;51.186;6.926;2023-03-21T00:11:10;19.22;51.55
65239;SHT30;51827;51.186;6.926;2023-03-21T00:12:10;19.22;51.51
65239;SHT30;51827;51.186;6.926;2023-03-21T00:13:12;19.22;51.51
65239;SHT30;51827;51.186;6.926;2023-03-21T00:14:13;19.22;51.52
65239;SHT30;51827;51.186;6.926;2023-03-21T00:15:13;19.20;51.53
65239;SHT30;51827;51.186;6.926;2023-03-21T00:16:16;19.22;51.52
65239;SHT30;51827;51.186;6.926;2023-03-21T00:17:16;19.22;51.55
65239;SHT30;51827;51.186;6.926;2023-03-21T00:18:16;19.20;51.56
65239;SHT30;51827;51.186;6.926;2023-03-21T00:19:17;19.20;51.54
65239;SHT30;51827;51.186;6.926;2023-03-21T00:20:17;19.20;51.52
65239;SHT30;51827;51.186;6.926;2023-03-21T00:21:19;19.20;51.54
65239;SHT30;51827;51.186;6.926;2023-03-21T00:22:20;19.19;51.55
65239;SHT30;51827;51.186;6.926;2023-03-21T00:23:20;19.20;51.51
65239;SHT30;51827;51.186;6.926;2023-03-21T00:24:21;19.18;51.54
65239;SHT30;51827;51.186;6.926;2023-03-21T00:25:21;19.22;51.56
65239;SHT30;51827;51.186;6.926;2023-03-21T00:26:22;19.19;51.51
65239;SHT30;51827;51.186;6.926;2023-03-21T00:27:22;19.20;51.55
65239;SHT30;51827;51.186;6.926;2023-03-21T00:28:23;19.20;51.55
65239;SHT30;51827;51.186;6.926;2023-03-21T00:29:23;19.20;51.52
65239;SHT30;51827;51.186;6.926;2023-03-21T00:30:23;19.22;51.50
65239;SHT30;51827;51.186;6.926;2023-03-21T00:31:24;19.20;51.50
65239;SHT30;51827;51.186;6.926;2023-03-21T00:32:24;19.22;51.48
65239;SHT30;51827;51.186;6.926;2023-03-21T00:33:25;19.20;51.48
65239;SHT30;51827;51.186;6.926;2023-03-21T00:34:26;19.22;51.54
65239;SHT30;51827;51.186;6.926;2023-03-21T00:35:27;19.19;51.51
65239;SHT30;51827;51.186;6.926;2023-03-21T00:36:27;19.19;51.52
65239;SHT30;51827;51.186;6.926;2023-03-21T00:37:27;19.19;51.55
65239;SHT30;51827;51.186;6.926;2023-03-21T00:38:28;19.19;51.52
65239;SHT30;51827;51.186;6.926;2023-03-21T00:39:28;19.19;51.51
65239;SHT30;51827;51.186;6.926;2023-03-21T00:40:28;19.19;51.51
65239;SHT30;51827;51.186;6.926;2023-03-21T00:41:28;19.20;51.54
65239;SHT30;51827;51.186;6.926;2023-03-21T00:42:29;19.22;51.56
65239;SHT30;51827;51.186;6.926;2023-03-21T00:43:29;19.19;51.50
65239;SHT30;51827;51.186;6.926;2023-03-21T00:44:29;19.20;51.46
65239;SHT30;51827;51.186;6.926;2023-03-21T00:45:30;19.20;51.54
65239;SHT30;51827;51.186;6.926;2023-03-21T00:46:30;19.20;51.49
65239;SHT30;51827;51.186;6.926;2023-03-21T00:47:30;19.18;51.52
65239;SHT30;51827;51.186;6.926;2023-03-21T00:48:30;19.20;51.49
65239;SHT30;51827;51.186;6.926;2023-03-21T00:49:31;19.20;51.47
65239;SHT30;51827;51.186;6.926;2023-03-21T00:50:32;19.20;51.48
65239;SHT30;51827;51.186;6.926;2023-03-21T00:51:32;19.19;51.49
65239;SHT30;51827;51.186;6.926;2023-03-21T00:52:32;19.19;51.50
65239;SHT30;51827;51.186;6.926;2023-03-21T00:53:32;19.19;51.47
65239;SHT30;51827;51.186;6.926;2023-03-21T00:54:34;19.22;51.51
65239;SHT30;51827;51.186;6.926;2023-03-21T00:55:34;19.20;51.51
65239;SHT30;51827;51.186;6.926;2023-03-21T00:56:34;19.19;51.50
65239;SHT30;51827;51.186;6.926;2023-03-21T00:57:35;19.20;51.49
65239;SHT30;51827;51.186;6.926;2023-03-21T00:58:35;19.19;51.47
65239;SHT30;51827;51.186;6.926;2023-03-21T00:59:35;19.20;51.51
65239;SHT30;51827;51.186;6.926;2023-03-21T01:00:36;19.20;51.49
65239;SHT30;51827;51.186;6.926;2023-03-21T01:01:36;19.20;51.47
65239;SHT30;51827;51.186;6.926;2023-03-21T01:02:37;19.19;51.51
65239;SHT30;51827;51.186;6.926;2023-03-21T01:03:38;19.19;51.51
65239;SHT30;51827;51.186;6.926;2023-03-21T01:04:38;19.19;51.46
65239;SHT30;51827;51.186;6.926;2023-03-21T01:05:41;19.22;51.46
65239;SHT30;51827;51.186;6.926;2023-03-21T01:06:42;19.22;51.44
65239;SHT30;51827;51.186;6.926;2023-03-21T01:07:43;19.19;51.46
65239;SHT30;51827;51.186;6.926;2023-03-21T01:08:44;19.20;51.46
65239;SHT30;51827;51.186;6.926;2023-03-21T01:09:44;19.19;51.50
65239;SHT30;51827;51.186;6.926;2023-03-21T01:10:46;19.19;51.50
65239;SHT30;51827;51.186;6.926;2023-03-21T01:11:47;19.22;51.47
65239;SHT30;51827;51.186;6.926;2023-03-21T01:12:48;19.20;51.44
65239;SHT30;51827;51.186;6.926;2023-03-21T01:13:48;19.19;51.51
65239;SHT30;51827;51.186;6.926;2023-03-21T01:14:49;19.16;51.50
65239;SHT30;51827;51.186;6.926;2023-03-21T01:15:52;19.16;51.50
65239;SHT30;51827;51.186;6.926;2023-03-21T01:16:53;19.18;51.50
65239;SHT30;51827;51.186;6.926;2023-03-21T01:17:53;19.18;51.52
65239;SHT30;51827;51.186;6.926;2023-03-21T01:18:53;19.19;51.52
65239;SHT30;51827;51.186;6.926;2023-03-21T01:19:54;19.18;51.53
65239;SHT30;51827;51.186;6.926;2023-03-21T01:20:56;19.18;51.54
65239;SHT30;51827;51.186;6.926;2023-03-21T01:21:57;19.19;51.51
65239;SHT30;51827;51.186;6.926;2023-03-21T01:22:57;19.18;51.51
65239;SHT30;51827;51.186;6.926;2023-03-21T01:23:58;19.15;51.54
65239;SHT30;51827;51.186;6.926;2023-03-21T01:24:58;19.19;51.49
65239;SHT30;51827;51.186;6.926;2023-03-21T01:25:58;19.19;51.52
65239;SHT30;51827;51.186;6.926;2023-03-21T01:27:01;19.20;51.52
65239;SHT30;51827;51.186;6.926;2023-03-21T01:28:01;19.19;51.57
65239;SHT30;51827;51.186;6.926;2023-03-21T01:29:03;19.18;51.48
65239;SHT30;51827;51.186;6.926;2023-03-21T01:30:04;19.20;51.52
65239;SHT30;51827;51.186;6.926;2023-03-21T01:31:05;19.19;51.53
65239;SHT30;51827;51.186;6.926;2023-03-21T01:32:05;19.19;51.49
65239;SHT30;51827;51.186;6.926;2023-03-21T01:33:05;19.19;51.51
65239;SHT30;51827;51.186;6.926;2023-03-21T01:34:06;19.19;51.48
65239;SHT30;51827;51.186;6.926;2023-03-21T01:35:06;19.19;51.51
65239;SHT30;51827;51.186;6.926;2023-03-21T01:36:07;19.16;51.50
65239;SHT30;51827;51.186;6.926;2023-03-21T01:37:08;19.19;51.52
65239;SHT30;51827;51.186;6.926;2023-03-21T01:38:09;19.19;51.52
65239;SHT30;51827;51.186;6.926;2023-03-21T01:39:09;19.16;51.47
65239;SHT30;51827;51.186;6.926;2023-03-21T01:40:20;19.22;51.50
65239;SHT30;51827;51.186;6.926;2023-03-21T01:41:39;19.19;51.47
65239;SHT30;51827;51.186;6.926;2023-03-21T01:42:40;19.22;51.46
65239;SHT30;51827;51.186;6.926;2023-03-21T01:43:40;19.16;51.50
65239;SHT30;51827;51.186;6.926;2023-03-21T01:46:46;19.19;51.49
65239;SHT30;51827;51.186;6.926;2023-03-21T01:47:47;19.19;51.52
65239;SHT30;51827;51.186;6.926;2023-03-21T01:49:03;19.19;51.51
65239;SHT30;51827;51.186;6.926;2023-03-21T01:50:06;19.19;51.53
65239;SHT30;51827;51.186;6.926;2023-03-21T01:51:07;19.19;51.56
65239;SHT30;51827;51.186;6.926;2023-03-21T01:52:10;19.16;51.54
65239;SHT30;51827;51.186;6.926;2023-03-21T01:53:13;19.16;51.53
65239;SHT30;51827;51.186;6.926;2023-03-21T01:54:20;19.18;51.52
65239;SHT30;51827;51.186;6.926;2023-03-21T01:55:21;19.18;51.52
65239;SHT30;51827;51.186;6.926;2023-03-21T01:56:28;19.16;51.52
65239;SHT30;51827;51.186;6.926;2023-03-21T01:57:37;19.18;51.53
65239;SHT30;51827;51.186;6.926;2023-03-21T01:58:40;19.19;51.49
65239;SHT30;51827;51.186;6.926;2023-03-21T02:00:41;19.16;51.52
65239;SHT30;51827;51.186;6.926;2023-03-21T02:01:42;19.22;51.47
65239;SHT30;51827;51.186;6.926;2023-03-21T02:02:44;19.18;51.50
65239;SHT30;51827;51.186;6.926;2023-03-21T02:03:46;19.19;51.50
65239;SHT30;51827;51.186;6.926;2023-03-21T02:04:46;19.20;51.47
65239;SHT30;51827;51.186;6.926;2023-03-21T02:05:49;19.19;51.47
65239;SHT30;51827;51.186;6.926;2023-03-21T02:06:56;19.18;51.50
65239;SHT30;51827;51.186;6.926;2023-03-21T02:07:58;19.19;51.52
65239;SHT30;51827;51.186;6.926;2023-03-21T02:09:03;19.19;51.50
65239;SHT30;51827;51.186;6.926;2023-03-21T02:10:06;19.16;51.52
65239;SHT30;51827;51.186;6.926;2023-03-21T02:11:08;19.18;51.47
65239;SHT30;51827;51.186;6.926;2023-03-21T02:12:08;19.18;51.54
65239;SHT30;51827;51.186;6.926;2023-03-21T02:13:08;19.19;51.49
65239;SHT30;51827;51.186;6.926;2023-03-21T02:14:12;19.18;51.47
65239;SHT30;51827;51.186;6.926;2023-03-21T02:15:13;19.18;51.49
65239;SHT30;51827;51.186;6.926;2023-03-21T02:16:28;19.18;51.50
65239;SHT30;51827;51.186;6.926;2023-03-21T02:17:58;19.19;51.50
65239;SHT30;51827;51.186;6.926;2023-03-21T02:19:38;19.18;51.50
65239;SHT30;51827;51.186;6.926;2023-03-21T02:27:17;19.18;51.53
65239;SHT30;51827;51.186;6.926;2023-03-21T02:28:27;19.19;51.58
65239;SHT30;51827;51.186;6.926;2023-03-21T02:36:22;19.16;51.58
65239;SHT30;51827;51.186;6.926;2023-03-21T02:37:31;19.16;51.59
65239;SHT30;51827;51.186;6.926;2023-03-21T02:41:04;19.15;51.58
65239;SHT30;51827;51.186;6.926;2023-03-21T02:42:25;19.15;51.62
65239;SHT30;51827;51.186;6.926;2023-03-21T02:43:43;19.16;51.59
65239;SHT30;51827;51.186;6.926;2023-03-21T02:47:00;19.15;51.64
65239;SHT30;51827;51.186;6.926;2023-03-21T02:48:07;19.16;51.61
65239;SHT30;51827;51.186;6.926;2023-03-21T02:49:14;19.15;51.58
65239;SHT30;51827;51.186;6.926;2023-03-21T02:50:23;19.16;51.54
65239;SHT30;51827;51.186;6.926;2023-03-21T02:51:26;19.16;51.56
65239;SHT30;51827;51.186;6.926;2023-03-21T02:52:30;19.16;51.54
65239;SHT30;51827;51.186;6.926;2023-03-21T02:53:35;19.18;51.58
65239;SHT30;51827;51.186;6.926;2023-03-21T02:54:37;19.15;51.57
65239;SHT30;51827;51.186;6.926;2023-03-21T02:55:39;19.16;51.60
65239;SHT30;51827;51.186;6.926;2023-03-21T02:56:41;19.13;51.62
65239;SHT30;51827;51.186;6.926;2023-03-21T02:57:43;19.15;51.63
65239;SHT30;51827;51.186;6.926;2023-03-21T02:58:45;19.16;51.61
65239;SHT30;51827;51.186;6.926;2023-03-21T02:59:47;19.16;51.62
65239;SHT30;51827;51.186;6.926;2023-03-21T03:00:49;19.15;51.58
65239;SHT30;51827;51.186;6.926;2023-03-21T03:01:50;19.16;51.63
65239;SHT30;51827;51.186;6.926;2023-03-21T03:02:50;19.15;51.54
65239;SHT30;51827;51.186;6.926;2023-03-21T03:03:51;19.15;51.59
65239;SHT30;51827;51.186;6.926;2023-03-21T03:04:51;19.18;51.57
65239;SHT30;51827;51.186;6.926;2023-03-21T03:05:56;19.18;51.57
65239;SHT30;51827;51.186;6.926;2023-03-21T03:07:05;19.18;51.57
65239;SHT30;51827;51.186;6.926;2023-03-21T03:09:35;19.16;51.60
65239;SHT30;51827;51.186;6.926;2023-03-21T03:11:44;19.15;51.63
65239;SHT30;51827;51.186;6.926;2023-03-21T03:13:53;19.13;51.63
65239;SHT30;51827;51.186;6.926;2023-03-21T03:18:59;19.16;51.63
65239;SHT30;51827;51.186;6.926;2023-03-21T03:20:37;19.16;51.59
65239;SHT30;51827;51.186;6.926;2023-03-21T03:21:47;19.15;51.55
65239;SHT30;51827;51.186;6.926;2023-03-21T03:23:12;19.18;51.54
65239;SHT30;51827;51.186;6.926;2023-03-21T03:24:24;19.15;51.60
65239;SHT30;51827;51.186;6.926;2023-03-21T03:25:36;19.16;51.60
65239;SHT30;51827;51.186;6.926;2023-03-21T03:27:04;19.16;51.60
65239;SHT30;51827;51.186;6.926;2023-03-21T03:28:06;19.16;51.60
65239;SHT30;51827;51.186;6.926;2023-03-21T03:29:10;19.18;51.63
65239;SHT30;51827;51.186;6.926;2023-03-21T03:30:11;19.15;51.63
65239;SHT30;51827;51.186;6.926;2023-03-21T03:31:13;19.13;51.64
65239;SHT30;51827;51.186;6.926;2023-03-21T03:33:19;19.15;51.64
65239;SHT30;51827;51.186;6.926;2023-03-21T03:34:23;19.13;51.64
65239;SHT30;51827;51.186;6.926;2023-03-21T03:35:25;19.13;51.63
65239;SHT30;51827;51.186;6.926;2023-03-21T03:36:29;19.16;51.63
65239;SHT30;51827;51.186;6.926;2023-03-21T03:37:32;19.15;51.61
65239;SHT30;51827;51.186;6.926;2023-03-21T03:38:34;19.18;51.61
65239;SHT30;51827;51.186;6.926;2023-03-21T03:40:15;19.15;51.61
65239;SHT30;51827;51.186;6.926;2023-03-21T03:41:21;19.15;51.62
65239;SHT30;51827;51.186;6.926;2023-03-21T03:42:33;19.16;51.64
65239;SHT30;51827;51.186;6.926;2023-03-21T03:43:44;19.16;51.61
65239;SHT30;51827;51.186;6.926;2023-03-21T03:44:45;19.16;51.61
65239;SHT30;51827;51.186;6.926;2023-03-21T03:45:56;19.16;51.60
65239;SHT30;51827;51.186;6.926;2023-03-21T03:47:07;19.16;51.60
65239;SHT30;51827;51.186;6.926;2023-03-21T03:48:17;19.16;51.56
65239;SHT30;51827;51.186;6.926;2023-03-21T03:49:23;19.18;51.57
65239;SHT30;51827;51.186;6.926;2023-03-21T03:50:38;19.18;51.57
65239;SHT30;51827;51.186;6.926;2023-03-21T03:52:03;19.15;51.61
65239;SHT30;51827;51.186;6.926;2023-03-21T03:54:13;19.18;51.61
65239;SHT30;51827;51.186;6.926;2023-03-21T03:55:17;19.16;51.61
65239;SHT30;51827;51.186;6.926;2023-03-21T03:56:19;19.15;51.62
65239;SHT30;51827;51.186;6.926;2023-03-21T03:57:20;19.15;51.65
65239;SHT30;51827;51.186;6.926;2023-03-21T03:58:22;19.16;51.63
65239;SHT30;51827;51.186;6.926;2023-03-21T03:59:23;19.18;51.63
65239;SHT30;51827;51.186;6.926;2023-03-21T04:00:23;19.15;51.62
65239;SHT30;51827;51.186;6.926;2023-03-21T04:01:24;19.15;51.62
65239;SHT30;51827;51.186;6.926;2023-03-21T04:02:24;19.15;51.62
65239;SHT30;51827;51.186;6.926;2023-03-21T04:03:24;19.16;51.58
65239;SHT30;51827;51.186;6.926;2023-03-21T04:04:24;19.18;51.60
65239;SHT30;51827;51.186;6.926;2023-03-21T04:05:25;19.16;51.61
65239;SHT30;51827;51.186;6.926;2023-03-21T04:06:26;19.16;51.57
65239;SHT30;51827;51.186;6.926;2023-03-21T04:07:26;19.18;51.59
65239;SHT30;51827;51.186;6.926;2023-03-21T04:08:26;19.12;51.66
65239;SHT30;51827;51.186;6.926;2023-03-21T04:09:27;19.15;51.75
65239;SHT30;51827;51.186;6.926;2023-03-21T04:10:27;19.15;51.82
65239;SHT30;51827;51.186;6.926;2023-03-21T04:11:27;19.16;51.82
65239;SHT30;51827;51.186;6.926;2023-03-21T04:12:27;19.13;51.81
65239;SHT30;51827;51.186;6.926;2023-03-21T04:13:28;19.16;51.85
65239;SHT30;51827;51.186;6.926;2023-03-21T04:14:28;19.13;51.90
65239;SHT30;51827;51.186;6.926;2023-03-21T04:15:28;19.16;51.86
65239;SHT30;51827;51.186;6.926;2023-03-21T04:16:28;19.16;51.89
65239;SHT30;51827;51.186;6.926;2023-03-21T04:17:29;19.15;51.89
65239;SHT30;51827;51.186;6.926;2023-03-21T04:18:29;19.16;51.88
65239;SHT30;51827;51.186;6.926;2023-03-21T04:19:29;19.15;51.86
65239;SHT30;51827;51.186;6.926;2023-03-21T04:20:29;19.18;51.88
65239;SHT30;51827;51.186;6.926;2023-03-21T04:21:30;19.16;51.88
65239;SHT30;51827;51.186;6.926;2023-03-21T04:22:30;19.16;51.88
65239;SHT30;51827;51.186;6.926;2023-03-21T04:23:30;19.16;51.88
65239;SHT30;51827;51.186;6.926;2023-03-21T04:24:30;19.18;51.91
65239;SHT30;51827;51.186;6.926;2023-03-21T04:25:35;19.18;51.92
65239;SHT30;51827;51.186;6.926;2023-03-21T04:26:35;19.18;51.92
65239;SHT30;51827;51.186;6.926;2023-03-21T04:27:36;19.18;51.90
65239;SHT30;51827;51.186;6.926;2023-03-21T04:28:36;19.16;51.89
65239;SHT30;51827;51.186;6.926;2023-03-21T04:29:36;19.18;51.87
65239;SHT30;51827;51.186;6.926;2023-03-21T04:30:37;19.18;51.93
65239;SHT30;51827;51.186;6.926;2023-03-21T04:31:38;19.19;51.85
65239;SHT30;51827;51.186;6.926;2023-03-21T04:32:38;19.18;51.90
65239;SHT30;51827;51.186;6.926;2023-03-21T04:33:38;19.18;51.90
65239;SHT30;51827;51.186;6.926;2023-03-21T04:34:39;19.18;52.00
65239;SHT30;51827;51.186;6.926;2023-03-21T04:35:39;19.19;52.03
65239;SHT30;51827;51.186;6.926;2023-03-21T04:36:39;19.16;52.03
65239;SHT30;51827;51.186;6.926;2023-03-21T04:37:40;19.18;52.01
65239;SHT30;51827;51.186;6.926;2023-03-21T04:38:40;19.19;52.00
65239;SHT30;51827;51.186;6.926;2023-03-21T04:39:40;19.20;52.01
65239;SHT30;51827;51.186;6.926;2023-03-21T04:40:40;19.18;51.99
65239;SHT30;51827;51.186;6.926;2023-03-21T04:41:42;19.19;52.00
65239;SHT30;51827;51.186;6.926;2023-03-21T04:42:44;19.19;51.98
65239;SHT30;51827;51.186;6.926;2023-03-21T04:43:44;19.18;51.97
65239;SHT30;51827;51.186;6.926;2023-03-21T04:44:45;19.19;52.01
65239;SHT30;51827;51.186;6.926;2023-03-21T04:45:45;19.20;51.97
65239;SHT30;51827;51.186;6.926;2023-03-21T04:46:46;19.20;52.02
65239;SHT30;51827;51.186;6.926;2023-03-21T04:47:46;19.19;51.94
65239;SHT30;51827;51.186;6.926;2023-03-21T04:48:46;19.22;51.97
65239;SHT30;51827;51.186;6.926;2023-03-21T04:49:46;19.19;51.98
65239;SHT30;51827;51.186;6.926;2023-03-21T04:50:47;19.19;51.99
65239;SHT30;51827;51.186;6.926;2023-03-21T04:51:47;19.22;51.95
65239;SHT30;51827;51.186;6.926;2023-03-21T04:52:47;19.20;51.93
65239;SHT30;51827;51.186;6.926;2023-03-21T04:53:47;19.22;51.96
65239;SHT30;51827;51.186;6.926;2023-03-21T04:54:47;19.22;51.94
65239;SHT30;51827;51.186;6.926;2023-03-21T04:55:48;19.22;51.93
65239;SHT30;51827;51.186;6.926;2023-03-21T04:56:48;19.19;51.93
65239;SHT30;51827;51.186;6.926;2023-03-21T04:57:48;19.22;51.93
65239;SHT30;51827;51.186;6.926;2023-03-21T04:58:48;19.20;51.89
65239;SHT30;51827;51.186;6.926;2023-03-21T04:59:49;19.19;51.91
65239;SHT30;51827;51.186;6.926;2023-03-21T05:00:49;19.22;51.96
65239;SHT30;51827;51.186;6.926;2023-03-21T05:01:50;19.20;51.97
65239;SHT30;51827;51.186;6.926;2023-03-21T05:02:50;19.20;52.01
65239;SHT30;51827;51.186;6.926;2023-03-21T05:03:51;19.19;52.02
65239;SHT30;51827;51.186;6.926;2023-03-21T05:04:51;19.19;51.97
65239;SHT30;51827;51.186;6.926;2023-03-21T05:05:51;19.20;52.00
65239;SHT30;51827;51.186;6.926;2023-03-21T05:06:52;19.22;52.02
65239;SHT30;51827;51.186;6.926;2023-03-21T05:07:53;19.19;52.02
65239;SHT30;51827;51.186;6.926;2023-03-21T05:08:55;19.22;52.07
65239;SHT30;51827;51.186;6.926;2023-03-21T05:09:56;19.20;52.06
65239;SHT30;51827;51.186;6.926;2023-03-21T05:10:56;19.22;52.04
65239;SHT30;51827;51.186;6.926;2023-03-21T05:11:56;19.20;52.06
65239;SHT30;51827;51.186;6.926;2023-03-21T05:12:57;19.22;52.01
65239;SHT30;51827;51.186;6.926;2023-03-21T05:13:58;19.22;52.06
65239;SHT30;51827;51.186;6.926;2023-03-21T05:14:58;19.22;52.05
65239;SHT30;51827;51.186;6.926;2023-03-21T05:15:58;19.20;52.05
65239;SHT30;51827;51.186;6.926;2023-03-21T05:16:59;19.22;52.00
65239;SHT30;51827;51.186;6.926;2023-03-21T05:17:59;19.20;52.00
65239;SHT30;51827;51.186;6.926;2023-03-21T05:19:00;19.19;52.02
65239;SHT30;51827;51.186;6.926;2023-03-21T05:20:00;19.22;51.99
65239;SHT30;51827;51.186;6.926;2023-03-21T05:21:01;19.22;51.97
65239;SHT30;51827;51.186;6.926;2023-03-21T05:22:03;19.22;51.96
65239;SHT30;51827;51.186;6.926;2023-03-21T05:23:04;19.20;51.96
65239;SHT30;51827;51.186;6.926;2023-03-21T05:24:04;19.20;51.95
65239;SHT30;51827;51.186;6.926;2023-03-21T05:25:07;19.22;51.98
65239;SHT30;51827;51.186;6.926;2023-03-21T05:26:08;19.22;51.97
65239;SHT30;51827;51.186;6.926;2023-03-21T05:27:09;19.20;52.00
65239;SHT30;51827;51.186;6.926;2023-03-21T05:28:09;19.20;51.93
65239;SHT30;51827;51.186;6.926;2023-03-21T05:29:09;19.22;52.12
65239;SHT30;51827;51.186;6.926;2023-03-21T05:30:12;19.22;52.58
65239;SHT30;51827;51.186;6.926;2023-03-21T05:31:14;19.22;52.88
65239;SHT30;51827;51.186;6.926;2023-03-21T05:32:14;19.22;53.08
65239;SHT30;51827;51.186;6.926;2023-03-21T05:33:14;19.23;53.05
65239;SHT30;51827;51.186;6.926;2023-03-21T05:34:15;19.24;53.07
65239;SHT30;51827;51.186;6.926;2023-03-21T05:35:15;19.24;53.09
65239;SHT30;51827;51.186;6.926;2023-03-21T05:36:15;19.26;53.08
65239;SHT30;51827;51.186;6.926;2023-03-21T05:37:15;19.24;53.07
65239;SHT30;51827;51.186;6.926;2023-03-21T05:38:16;19.26;53.03
65239;SHT30;51827;51.186;6.926;2023-03-21T05:39:16;19.24;53.00
65239;SHT30;51827;51.186;6.926;2023-03-21T05:40:16;19.27;52.96
65239;SHT30;51827;51.186;6.926;2023-03-21T05:41:17;19.27;52.94
65239;SHT30;51827;51.186;6.926;2023-03-21T05:42:17;19.26;52.94
65239;SHT30;51827;51.186;6.926;2023-03-21T05:43:18;19.29;52.91
65239;SHT30;51827;51.186;6.926;2023-03-21T05:44:18;19.26;52.90
65239;SHT30;51827;51.186;6.926;2023-03-21T05:45:18;19.24;52.84
65239;SHT30;51827;51.186;6.926;2023-03-21T05:46:19;19.27;52.82
65239;SHT30;51827;51.186;6.926;2023-03-21T05:47:19;19.27;52.79
65239;SHT30;51827;51.186;6.926;2023-03-21T05:48:19;19.24;52.77
65239;SHT30;51827;51.186;6.926;2023-03-21T05:49:19;19.29;52.69
65239;SHT30;51827;51.186;6.926;2023-03-21T05:50:20;19.29;52.55
65239;SHT30;51827;51.186;6.926;2023-03-21T05:51:20;19.27;52.63
65239;SHT30;51827;51.186;6.926;2023-03-21T05:52:20;19.27;52.60
65239;SHT30;51827;51.186;6.926;2023-03-21T05:53:21;19.29;52.65
65239;SHT30;51827;51.186;6.926;2023-03-21T05:54:21;19.27;52.58
65239;SHT30;51827;51.186;6.926;2023-03-21T05:55:21;19.29;52.59
65239;SHT30;51827;51.186;6.926;2023-03-21T05:56:21;19.29;52.57
65239;SHT30;51827;51.186;6.926;2023-03-21T05:57:22;19.29;52.51
65239;SHT30;51827;51.186;6.926;2023-03-21T05:58:22;19.30;52.51
65239;SHT30;51827;51.186;6.926;2023-03-21T05:59:22;19.27;52.50
65239;SHT30;51827;51.186;6.926;2023-03-21T06:00:22;19.29;52.51
65239;SHT30;51827;51.186;6.926;2023-03-21T06:01:23;19.27;52.45
65239;SHT30;51827;51.186;6.926;2023-03-21T06:02:23;19.29;52.47
65239;SHT30;51827;51.186;6.926;2023-03-21T06:03:23;19.26;52.47
65239;SHT30;51827;51.186;6.926;2023-03-21T06:04:24;19.26;52.47
65239;SHT30;51827;51.186;6.926;2023-03-21T06:05:24;19.26;52.44
65239;SHT30;51827;51.186;6.926;2023-03-21T06:06:24;19.30;52.44
65239;SHT30;51827;51.186;6.926;2023-03-21T06:07:25;19.27;52.44
65239;SHT30;51827;51.186;6.926;2023-03-21T06:08:25;19.29;52.40
65239;SHT30;51827;51.186;6.926;2023-03-21T06:09:25;19.27;52.40
65239;SHT30;51827;51.186;6.926;2023-03-21T06:10:25;19.27;52.42
65239;SHT30;51827;51.186;6.926;2023-03-21T06:11:29;19.27;52.43
65239;SHT30;51827;51.186;6.926;2023-03-21T06:12:30;19.26;52.36
65239;SHT30;51827;51.186;6.926;2023-03-21T06:13:30;19.30;52.40
65239;SHT30;51827;51.186;6.926;2023-03-21T06:14:30;19.27;52.37
65239;SHT30;51827;51.186;6.926;2023-03-21T06:15:31;19.30;52.37
65239;SHT30;51827;51.186;6.926;2023-03-21T06:16:31;19.33;52.33
65239;SHT30;51827;51.186;6.926;2023-03-21T06:17:31;19.30;52.32
65239;SHT30;51827;51.186;6.926;2023-03-21T06:18:32;19.29;52.28
65239;SHT30;51827;51.186;6.926;2023-03-21T06:19:32;19.32;52.29
65239;SHT30;51827;51.186;6.926;2023-03-21T06:20:32;19.29;52.28
65239;SHT30;51827;51.186;6.926;2023-03-21T06:21:32;19.32;52.25
65239;SHT30;51827;51.186;6.926;2023-03-21T06:22:33;19.30;52.27
65239;SHT30;51827;51.186;6.926;2023-03-21T06:23:34;19.29;52.26
65239;SHT30;51827;51.186;6.926;2023-03-21T06:24:34;19.30;52.26
65239;SHT30;51827;51.186;6.926;2023-03-21T06:25:34;19.29;52.26
65239;SHT30;51827;51.186;6.926;2023-03-21T06:26:35;19.30;52.22
65239;SHT30;51827;51.186;6.926;2023-03-21T06:27:35;19.32;52.19
65239;SHT30;51827;51.186;6.926;2023-03-21T06:28:36;19.29;52.26
65239;SHT30;51827;51.186;6.926;2023-03-21T06:29:36;19.29;52.21
65239;SHT30;51827;51.186;6.926;2023-03-21T06:30:36;19.29;52.26
65239;SHT30;51827;51.186;6.926;2023-03-21T06:31:37;19.32;52.21
65239;SHT30;51827;51.186;6.926;2023-03-21T06:32:37;19.32;52.17
65239;SHT30;51827;51.186;6.926;2023-03-21T06:33:37;19.29;52.20
65239;SHT30;51827;51.186;6.926;2023-03-21T06:34:37;19.32;52.16
65239;SHT30;51827;51.186;6.926;2023-03-21T06:35:38;19.30;52.16
65239;SHT30;51827;51.186;6.926;2023-03-21T06:36:38;19.29;52.16
65239;SHT30;51827;51.186;6.926;2023-03-21T06:37:38;19.29;52.13
65239;SHT30;51827;51.186;6.926;2023-03-21T06:38:38;19.30;52.06
65239;SHT30;51827;51.186;6.926;2023-03-21T06:39:39;19.30;52.01
65239;SHT30;51827;51.186;6.926;2023-03-21T06:40:39;19.30;51.97
65239;SHT30;51827;51.186;6.926;2023-03-21T06:41:39;19.30;51.94
65239;SHT30;51827;51.186;6.926;2023-03-21T06:42:40;19.30;51.96
65239;SHT30;51827;51.186;6.926;2023-03-21T06:43:40;19.30;51.89
65239;SHT30;51827;51.186;6.926;2023-03-21T06:44:40;19.30;51.90
65239;SHT30;51827;51.186;6.926;2023-03-21T06:45:41;19.30;51.91
65239;SHT30;51827;51.186;6.926;2023-03-21T06:46:42;19.30;51.84
65239;SHT30;51827;51.186;6.926;2023-03-21T06:47:42;19.29;51.87
65239;SHT30;51827;51.186;6.926;2023-03-21T06:48:42;19.29;51.85
65239;SHT30;51827;51.186;6.926;2023-03-21T06:49:42;19.27;51.84
65239;SHT30;51827;51.186;6.926;2023-03-21T06:50:43;19.30;51.81
65239;SHT30;51827;51.186;6.926;2023-03-21T06:51:43;19.30;51.81
65239;SHT30;51827;51.186;6.926;2023-03-21T06:52:43;19.29;51.84
65239;SHT30;51827;51.186;6.926;2023-03-21T06:53:43;19.27;51.79
65239;SHT30;51827;51.186;6.926;2023-03-21T06:54:44;19.32;51.77
65239;SHT30;51827;51.186;6.926;2023-03-21T06:55:48;19.29;51.73
65239;SHT30;51827;51.186;6.926;2023-03-21T06:56:48;19.29;51.71
65239;SHT30;51827;51.186;6.926;2023-03-21T06:57:48;19.27;51.68
65239;SHT30;51827;51.186;6.926;2023-03-21T06:58:49;19.29;51.66
65239;SHT30;51827;51.186;6.926;2023-03-21T06:59:49;19.26;51.70
65239;SHT30;51827;51.186;6.926;2023-03-21T07:00:49;19.29;51.68
65239;SHT30;51827;51.186;6.926;2023-03-21T07:01:49;19.27;51.66
65239;SHT30;51827;51.186;6.926;2023-03-21T07:02:50;19.29;51.68
65239;SHT30;51827;51.186;6.926;2023-03-21T07:03:50;19.29;51.61